Southwest Oregon Regional Airport
KOTH : now visible

Airfield :











YOU CAN JOIN US ON...

 
LOGIN :

Register | Disclaimer

   EN    FR    IT 

 









Legend :    VFR   Marginal VFR   IFR   Intensive IFR   Very Intensive IFR
Visi :
Ceiling :
>= 8 km
>= 3000ft
5 to 8 km
1000 to 3000 ft
1500m to 5 km
500 to 1000 ft
800 to 1500m
200 to 500 ft
< 800m
< 200 ft
Symbols :   Thunderstorms  Fog  Heavy snow  Heavy precipitations  Wind > 20 kt






- Airport Elevation : 17 ft
- IATA code : OTH


KOTH - Southwest Oregon Regional

CURRENT METAR :
  • 020725Z 19009KT 10SM -RA FEW021 BKN027 OVC033 04/02 A2942 RMK AO2 WSHFT 0647 TSE15 P0000

EXPIRED METARs :
  • 020715Z 25015G18KT 10SM -RA SCT023 BKN031 OVC044 06/03 A2941 RMK AO2 WSHFT 0647 TSE15 P0000
  • 020701Z 27012KT 10SM VCTS -RA BKN021 BKN027 OVC048 06/03 A2941 RMK AO2 WSHFT 0647 LTG DSNT S P0000
  • 020639Z 19011G16KT 8SM -RA SCT023 BKN029 OVC035 04/02 A2939 RMK AO2 P0005
  • 020603Z 17009KT 10SM FEW026 BKN038 OVC048 04/03 A2940 RMK AO2 RAE02 P0000
  • 020537Z 17007G22KT 7SM -RA SCT016 BKN030 OVC110 04/03 A2939 RMK AO2 RAB30 P0003
  • 020456Z 15006KT 10SM FEW020 BKN026 OVC060 04/03 A2939 RMK AO2 RAE25 SLP951 P0000 T00440033
  • 020434Z 22006KT 10SM SCT017 BKN047 OVC060 06/03 A2939 RMK AO2 RAE25 P0000
  • 012056Z 14013G21KT 10SM FEW022 SCT028 SCT033 08/04 A2956 RMK AO2 RAB16E27 PRESFR SLP009 P0000 60000 T00830044 58017
  • 020356Z VRB04KT 8SM -RA SCT017 BKN026 OVC034 05/04 A2939 RMK AO2 RAB07 SLP950 P0004 T00500039
  • 020313Z 15009KT 10SM -RA FEW022 BKN029 OVC037 05/04 A2936 RMK AO2 RAB07 P0001
  • 020256Z 16006KT 10SM FEW015 BKN031 OVC090 04/04 A2936 RMK AO2 RAE47 SLP942 P0000 60012 T00440039 56019
  • 020244Z 16012KT 10SM -RA FEW013 BKN031 OVC041 05/04 A2936 RMK AO2 P0000

TAF KOTH
Valid from the 02 at 07:00 until the 03 at 06:00 UTC


020642Z 0207/0306 15007KT P6SM VCSH BKN040 OVC050
FM020800 21010KT P6SM -RA OVC040
FM021400 20010KT P6SM VCSH OVC050
FM030000 VRB03KT P6SM -RA OVC060
KZSE FIR / North America



MET'MAP, your aeronautical weather chart ! - Copyright ORBIFLY December 2007 - Disclaimer

ORBIFLY MET'MAP TEAM :

Programming & Development : Alexandra Zaïnal
Original concept : Baudouin d'Aumeries
Technical & hardware support : Manuel Goepfert
Assistance : Marc-Olivier Méhu




SOURCES & CREDITS :

   NOAA       Earth
Advisory